Startpagina
METAR-TAF:

METAR-TAF

Vliegvelden :

Brighton, Engeland

breedte: 50-50N, lengte: 000-17W, hoogte: 2 m

Actueel weer

Dit bericht is 12 uur en het 55 minuten geleden gemaakt, om 16:50 UTC
Wind 12 kt uit het noordwesten
Temperatuur 17°C
Vochtigheid 42%
Druk 997 hPa
Zicht 10 km of meer
geen wolken onder 1500 m en geen cumulonimbus

METAR: EGKA 051650Z 32012KT CAVOK 17/04 Q0997

Tijdstip: 06:45 (05:45 UTC)

Verwachting

Dit bericht is 15 uur en het 48 minuten geleden gemaakt, om 13:57 UTC
Verwachting geldig van 05 om 15 UTC tot 05 om 17 UTC
Wind 15 kt uit het westnoordwesten
Zicht 10 km of meer
Verspreide wolken op 4000 ft
Kans 40% :
Tijdelijke
van 05 om 15 UTC tot 05 om 17 UTC
Wind 18 kt uit het westnoordwesten met uitschieters tot 28 kt
Zicht: 7000 m
regenbuien

TAF: EGKA 051357Z 0515/0517 29015KT 9999 SCT040 PROB40 TEMPO 0515/0517 30018G28KT 7000 SHRA

Waarnemingen en weersverwachtingen van meer dan 4000 vliegvelden (METAR en TAF).

De beschikbare stations zijn de gele en rode punten op de kaart.

Ga met uw muis naar het station om de naam te zien.

Klik dan om waarnemingen en weersverwachtingen te zien.

kaart wijzigen: klik op de groene knoppen met een zwart kruis om in te zoomen, op de groene knop met een streepje om uit te zoomen of op de groene pijlen voor aangrenzende kaarten.


METAR-TAF: